createdAt,value
2022-08-05T00:00:18.693Z,101270.63
2022-08-05T00:02:51.816Z,101276.72
2022-08-05T00:06:02.958Z,101278.84
2022-08-05T00:08:20.057Z,101269.53
2022-08-05T00:11:01.386Z,101277.50
2022-08-05T00:13:38.954Z,101272.84
2022-08-05T00:16:09.538Z,101260.41
2022-08-05T00:18:42.151Z,101257.91
2022-08-05T00:21:10.777Z,101265.19
2022-08-05T00:23:46.365Z,101268.47
2022-08-05T00:26:23.303Z,101257.03
2022-08-05T00:28:52.097Z,101249.06
2022-08-05T00:31:53.427Z,101235.75
2022-08-05T00:34:55.423Z,101250.88
2022-08-05T00:37:11.837Z,101251.19
2022-08-05T00:39:44.381Z,101249.38
2022-08-05T00:42:34.358Z,101250.34
2022-08-05T00:45:02.506Z,101248.53
2022-08-05T00:47:53.487Z,101253.84
2022-08-05T00:50:18.421Z,101261.66
2022-08-05T00:52:48.668Z,101280.75
2022-08-05T00:55:16.571Z,101289.03
2022-08-05T00:57:58.226Z,101288.34
2022-08-05T01:00:27.782Z,101288.34
2022-08-05T01:02:55.974Z,101271.59
2022-08-05T01:05:24.231Z,101269.06
2022-08-05T01:08:42.111Z,101260.25
2022-08-05T01:10:57.958Z,101246.13
2022-08-05T01:13:58.457Z,101267.38
2022-08-05T01:16:31.756Z,101279.88
2022-08-05T01:19:07.634Z,101290.19
2022-08-05T01:22:03.500Z,101273.88
2022-08-05T01:25:23.452Z,101266.03
2022-08-05T01:28:19.194Z,101268.69
2022-08-05T01:30:55.332Z,101275.03
2022-08-05T01:33:35.453Z,101271.19
2022-08-05T01:36:13.198Z,101260.69
2022-08-05T01:38:45.226Z,101256.97
2022-08-05T01:41:16.070Z,101244.38
2022-08-05T01:43:52.450Z,101252.66
2022-08-05T01:46:41.926Z,101253.66
2022-08-05T01:49:23.646Z,101252.97
2022-08-05T01:51:59.675Z,101243.34
2022-08-05T01:54:33.327Z,101241.66
2022-08-05T01:58:10.895Z,101249.13
2022-08-05T01:59:53.836Z,101253.38
2022-08-05T02:02:28.323Z,101257.03
2022-08-05T02:05:03.072Z,101265.84
2022-08-05T02:07:32.190Z,101268.50
2022-08-05T02:10:01.636Z,101257.06
2022-08-05T02:12:38.343Z,101244.47
2022-08-05T02:15:12.189Z,101236.22
2022-08-05T02:18:31.604Z,101233.25
2022-08-05T02:20:41.312Z,101237.72
2022-08-05T02:23:13.535Z,101232.56
2022-08-05T02:25:49.339Z,101224.06
2022-08-05T02:28:29.229Z,101214.97
2022-08-05T02:31:05.970Z,101206.28
2022-08-05T02:33:39.400Z,101200.84
2022-08-05T02:36:13.534Z,101202.38
2022-08-05T02:38:53.680Z,101196.50
2022-08-05T02:41:28.409Z,101199.47
2022-08-05T02:44:02.883Z,101182.69
2022-08-05T02:46:53.384Z,101179.38
2022-08-05T02:49:26.888Z,101175.19
2022-08-05T02:52:03.717Z,101163.75
2022-08-05T02:54:37.213Z,101151.13
2022-08-05T02:57:09.912Z,101152.44
2022-08-05T02:59:56.275Z,101132.75
2022-08-05T03:02:30.147Z,101137.91
2022-08-05T03:04:59.678Z,101125.63
2022-08-05T03:08:01.007Z,101122.13
2022-08-05T03:10:24.528Z,101115.19
2022-08-05T03:12:53.896Z,101128.59
2022-08-05T03:15:23.780Z,101125.09
2022-08-05T03:17:55.861Z,101138.53
2022-08-05T03:20:25.668Z,101156.00
2022-08-05T03:22:57.335Z,101150.00
2022-08-05T03:25:33.904Z,101153.66
2022-08-05T03:28:18.495Z,101171.69
2022-08-05T03:30:47.671Z,101182.00
2022-08-05T03:33:18.115Z,101196.94
2022-08-05T03:35:46.435Z,101213.78
2022-08-05T03:38:14.708Z,101219.25
2022-08-05T03:40:45.287Z,101217.59
2022-08-05T03:44:08.956Z,101192.69
2022-08-05T03:46:04.551Z,101165.03
2022-08-05T03:48:35.114Z,101133.84
2022-08-05T03:52:36.906Z,101115.25
2022-08-05T03:55:50.982Z,101115.41
2022-08-05T03:56:54.663Z,101099.00
2022-08-05T03:59:47.042Z,101099.00
2022-08-05T04:02:38.532Z,101116.56
2022-08-05T04:05:14.238Z,101104.59
2022-08-05T04:07:57.730Z,101101.97
2022-08-05T04:10:27.851Z,101118.50
2022-08-05T04:12:58.990Z,101140.03
2022-08-05T04:15:27.851Z,101161.13
2022-08-05T04:18:03.388Z,101178.53
2022-08-05T04:20:32.867Z,101190.66
2022-08-05T04:23:01.570Z,101202.97
2022-08-05T04:25:56.543Z,101212.28
2022-08-05T04:28:17.433Z,101201.81
2022-08-05T04:30:45.528Z,101191.50
2022-08-05T04:33:13.694Z,101185.03
2022-08-05T04:36:10.900Z,101174.88
2022-08-05T04:38:39.157Z,101175.59
2022-08-05T04:41:09.496Z,101174.13
2022-08-05T04:43:40.689Z,101187.25
2022-08-05T04:46:27.858Z,101194.41
2022-08-05T04:48:58.666Z,101194.09
2022-08-05T04:51:30.556Z,101204.41
2022-08-05T04:53:58.567Z,101199.91
2022-08-05T04:56:34.568Z,101195.97
2022-08-05T04:59:21.512Z,101184.91
2022-08-05T05:02:34.889Z,101189.91
2022-08-05T05:04:43.919Z,101187.25
2022-08-05T05:07:15.807Z,101175.47
2022-08-05T05:09:43.960Z,101182.44
2022-08-05T05:12:12.392Z,101182.97
2022-08-05T05:14:49.182Z,101188.13
2022-08-05T05:17:23.708Z,101189.94
2022-08-05T05:19:56.504Z,101177.66
2022-08-05T05:22:26.885Z,101169.16
2022-08-05T05:24:57.302Z,101171.16
2022-08-05T05:27:45.349Z,101173.66
2022-08-05T05:30:29.485Z,101169.16
2022-08-05T05:33:01.218Z,101152.75
2022-08-05T05:35:39.508Z,101148.78
2022-08-05T05:38:13.105Z,101139.53
2022-08-05T05:40:49.476Z,101130.56
2022-08-05T05:43:27.918Z,101128.59
2022-08-05T05:46:13.798Z,101136.28
2022-08-05T05:48:48.355Z,101118.34
2022-08-05T05:51:21.212Z,101108.41
2022-08-05T05:53:57.504Z,101111.44
2022-08-05T05:56:33.110Z,101104.97
2022-08-05T05:59:05.081Z,101108.00
2022-08-05T06:01:37.654Z,101108.16
2022-08-05T06:04:08.166Z,101115.50
2022-08-05T06:06:37.647Z,101116.03
2022-08-05T06:09:17.654Z,101115.03
2022-08-05T06:12:01.336Z,101112.06
2022-08-05T06:14:30.485Z,101117.41
2022-08-05T06:16:58.512Z,101125.59
2022-08-05T06:19:35.013Z,101133.94
2022-08-05T06:22:03.977Z,101132.63
2022-08-05T06:24:33.456Z,101123.56
2022-08-05T06:27:03.950Z,101125.75
2022-08-05T06:29:52.097Z,101139.19
2022-08-05T06:32:25.393Z,101136.06
2022-08-05T06:34:56.084Z,101139.56
2022-08-05T06:37:39.462Z,101143.56
2022-08-05T06:40:20.511Z,101143.06
2022-08-05T06:42:52.206Z,101145.06
2022-08-05T06:45:44.072Z,101128.28
2022-08-05T06:48:52.623Z,101133.38
2022-08-05T06:51:01.102Z,101134.03
2022-08-05T06:53:29.527Z,101131.69
2022-08-05T06:55:59.992Z,101142.81
2022-08-05T06:58:34.765Z,101146.00
2022-08-05T07:01:06.978Z,101153.31
2022-08-05T07:03:35.589Z,101156.44
2022-08-05T07:06:05.674Z,101152.06
2022-08-05T07:08:42.145Z,101153.88
2022-08-05T07:11:15.502Z,101157.38
2022-08-05T07:14:03.806Z,101151.16
2022-08-05T07:18:00.931Z,101152.28
2022-08-05T07:22:28.405Z,101155.75
2022-08-05T07:24:59.007Z,101159.19
2022-08-05T07:27:57.993Z,101164.81
2022-08-05T07:30:22.211Z,101156.09
2022-08-05T07:32:58.627Z,101155.72
2022-08-05T07:36:04.399Z,101159.69
2022-08-05T07:38:26.490Z,101163.09
2022-08-05T07:41:35.245Z,101171.00
2022-08-05T07:43:52.704Z,101171.09
2022-08-05T07:46:25.508Z,101165.56
2022-08-05T07:49:02.006Z,101158.34
2022-08-05T07:51:36.888Z,101170.16
2022-08-05T07:57:00.725Z,101166.00
2022-08-05T08:02:16.117Z,101167.47
2022-08-05T08:04:47.338Z,101157.69
2022-08-05T08:07:15.854Z,101148.59
2022-08-05T08:09:44.062Z,101149.16
2022-08-05T08:12:33.540Z,101143.94
2022-08-05T08:15:04.404Z,101139.31
2022-08-05T08:17:32.988Z,101148.22
2022-08-05T08:20:43.336Z,101144.44
2022-08-05T08:22:53.166Z,101137.75
2022-08-05T08:25:27.006Z,101150.97
2022-08-05T08:28:18.886Z,101158.00
2022-08-05T08:31:01.435Z,101153.75
2022-08-05T08:33:29.330Z,101146.22
2022-08-05T08:36:38.261Z,101138.47
2022-08-05T08:38:55.359Z,101155.66
2022-08-05T08:41:26.101Z,101144.84
2022-08-05T08:45:24.434Z,101141.00
2022-08-05T08:47:46.955Z,101141.72
2022-08-05T08:50:22.688Z,101143.38
2022-08-05T08:52:47.428Z,101146.16
2022-08-05T08:56:02.462Z,101140.06
2022-08-05T08:58:08.789Z,101140.25
2022-08-05T09:00:37.443Z,101143.19
2022-08-05T09:03:08.277Z,101149.09
2022-08-05T09:05:38.334Z,101161.19
2022-08-05T09:08:26.540Z,101160.72
2022-08-05T09:10:55.321Z,101159.06
2022-08-05T09:13:23.662Z,101154.06
2022-08-05T09:15:51.928Z,101149.75
2022-08-05T09:18:21.724Z,101150.41
2022-08-05T09:20:51.302Z,101145.66
2022-08-05T09:23:22.017Z,101148.06
2022-08-05T09:26:01.718Z,101136.88
2022-08-05T09:28:33.789Z,101126.16
2022-08-05T09:31:22.593Z,101110.31
2022-08-05T09:33:58.684Z,101112.56
2022-08-05T09:36:45.822Z,101114.66
2022-08-05T09:39:41.249Z,101124.81
2022-08-05T09:42:17.608Z,101132.56
2022-08-05T09:44:56.849Z,101138.50
2022-08-05T09:47:30.674Z,101133.09
2022-08-05T09:50:38.759Z,101129.66
2022-08-05T09:53:22.949Z,101139.34
2022-08-05T09:56:13.142Z,101146.75
2022-08-05T09:58:42.344Z,101139.28
2022-08-05T10:01:15.617Z,101137.63
2022-08-05T10:03:59.439Z,101132.28
2022-08-05T10:06:29.501Z,101126.94
2022-08-05T10:09:27.680Z,101127.59
2022-08-05T10:12:18.609Z,101123.88
2022-08-05T10:15:16.424Z,101120.97
2022-08-05T10:17:54.459Z,101111.25
2022-08-05T10:20:25.146Z,101103.31
2022-08-05T10:22:54.824Z,101104.88
2022-08-05T10:25:26.571Z,101094.88
2022-08-05T10:28:13.723Z,101092.84
2022-08-05T10:32:50.893Z,101083.16
2022-08-05T10:33:34.258Z,101075.69
2022-08-05T10:36:05.904Z,101088.06
2022-08-05T10:38:36.795Z,101086.47
2022-08-05T10:41:13.846Z,101074.22
2022-08-05T10:43:51.970Z,101067.84
2022-08-05T10:46:24.050Z,101069.41
2022-08-05T10:49:01.506Z,101066.78
2022-08-05T10:51:58.304Z,101054.28
2022-08-05T10:55:03.035Z,101052.22
2022-08-05T10:57:33.921Z,101059.00
2022-08-05T11:00:18.241Z,101060.22
2022-08-05T11:03:25.145Z,101048.69
2022-08-05T11:06:15.407Z,101052.00
2022-08-05T11:09:32.437Z,101044.97
2022-08-05T11:12:54.270Z,101051.16
2022-08-05T11:15:59.995Z,101053.66
2022-08-05T11:18:30.063Z,101063.66
2022-08-05T11:21:00.205Z,101056.81
2022-08-05T11:23:49.871Z,101051.22
2022-08-05T11:26:28.771Z,101054.66
2022-08-05T11:29:12.245Z,101052.72
2022-08-05T11:31:53.979Z,101035.94
2022-08-05T11:34:38.325Z,101045.75
2022-08-05T11:38:30.027Z,101056.19
2022-08-05T11:40:00.634Z,101062.03
2022-08-05T11:42:37.963Z,101072.63
2022-08-05T11:45:14.420Z,101088.97
2022-08-05T11:47:57.455Z,101096.84
2022-08-05T11:50:27.193Z,101103.63
2022-08-05T11:52:58.537Z,101104.41
2022-08-05T11:55:31.706Z,101103.75
2022-08-05T11:58:09.839Z,101100.69
2022-08-05T12:00:44.057Z,101093.75
2022-08-05T12:03:28.447Z,101088.31
2022-08-05T12:06:05.910Z,101088.38
2022-08-05T12:08:34.990Z,101093.38
2022-08-05T12:11:10.387Z,101081.13
2022-08-05T12:13:55.867Z,101075.69
2022-08-05T12:16:33.222Z,101072.03
2022-08-05T12:19:08.438Z,101066.25
2022-08-05T12:21:39.365Z,101075.78
2022-08-05T12:24:10.570Z,101084.66
2022-08-05T12:26:44.122Z,101085.38
2022-08-05T12:29:16.406Z,101071.41
2022-08-05T12:31:53.761Z,101083.22
2022-08-05T12:34:25.875Z,101096.28
2022-08-05T12:36:54.545Z,101100.84
2022-08-05T12:39:34.294Z,101097.34
2022-08-05T12:42:14.929Z,101095.19
2022-08-05T12:44:44.588Z,101109.06
2022-08-05T12:47:17.228Z,101116.59
2022-08-05T12:50:03.228Z,101117.38
2022-08-05T12:52:39.116Z,101119.59
2022-08-05T12:55:22.649Z,101106.94
2022-08-05T12:58:38.672Z,101098.13
2022-08-05T13:02:00.181Z,101086.31
2022-08-05T13:03:38.965Z,101081.31
2022-08-05T13:06:13.653Z,101082.50
2022-08-05T13:08:50.595Z,101078.34
2022-08-05T13:11:59.830Z,101078.34
2022-08-05T13:14:19.790Z,101074.88
2022-08-05T13:16:52.835Z,101059.69
2022-08-05T13:19:27.810Z,101048.03
2022-08-05T13:22:28.299Z,101042.03
2022-08-05T13:25:00.665Z,101039.38
2022-08-05T13:27:35.507Z,101018.72
2022-08-05T13:30:36.021Z,101016.41
2022-08-05T13:32:57.578Z,101014.53
2022-08-05T13:35:47.543Z,101011.25
2022-08-05T13:38:28.516Z,101008.75
2022-08-05T13:41:02.723Z,100982.44
2022-08-05T13:43:45.759Z,100953.84
2022-08-05T13:46:30.628Z,100952.22
2022-08-05T13:49:10.575Z,100940.22
2022-08-05T13:51:46.210Z,100937.09
2022-08-05T13:54:15.992Z,100932.56
2022-08-05T13:56:51.543Z,100926.63
2022-08-05T13:59:24.098Z,100946.75
2022-08-05T14:01:58.414Z,100960.25
2022-08-05T14:04:49.967Z,100958.44
2022-08-05T14:07:25.498Z,100962.63
2022-08-05T14:10:11.757Z,100978.78
2022-08-05T14:12:40.171Z,100982.09
2022-08-05T14:16:09.088Z,100992.59
2022-08-05T14:17:59.897Z,101007.56
2022-08-05T14:20:29.550Z,101009.03
2022-08-05T14:22:59.223Z,101005.38
2022-08-05T14:25:28.016Z,101008.19
2022-08-05T14:27:58.394Z,100996.56
2022-08-05T14:30:28.172Z,100996.56
2022-08-05T14:32:57.041Z,100992.03
2022-08-05T14:35:36.274Z,100991.41
2022-08-05T14:38:32.683Z,100996.06
2022-08-05T14:41:06.855Z,100992.09
2022-08-05T14:43:59.106Z,100994.91
2022-08-05T14:46:29.045Z,100985.44
2022-08-05T14:48:59.030Z,100982.94
2022-08-05T14:51:31.561Z,100967.94
2022-08-05T14:54:26.870Z,100963.63
2022-08-05T14:56:49.374Z,100977.94
2022-08-05T14:59:21.224Z,100975.28
2022-08-05T15:01:49.851Z,100963.63
2022-08-05T15:04:20.735Z,100968.28
2022-08-05T15:06:50.247Z,100978.94
2022-08-05T15:09:52.026Z,100971.78
2022-08-05T15:12:09.431Z,100967.81
2022-08-05T15:14:41.451Z,100965.84
2022-08-05T15:17:46.869Z,100961.50
2022-08-05T15:20:06.104Z,100963.69
2022-08-05T15:22:34.180Z,100959.16
2022-08-05T15:25:13.859Z,100951.19
2022-08-05T15:27:43.034Z,100933.38
2022-08-05T15:30:20.649Z,100913.28
2022-08-05T15:32:50.625Z,100912.59
2022-08-05T15:35:18.793Z,100924.59
2022-08-05T15:38:33.028Z,100939.56
2022-08-05T15:41:03.432Z,100934.06
2022-08-05T15:43:27.336Z,100940.06
2022-08-05T15:46:00.473Z,100948.69
2022-08-05T15:48:30.091Z,100940.72
2022-08-05T15:50:58.311Z,100934.56
2022-08-05T15:53:38.396Z,100929.06
2022-08-05T15:56:20.332Z,100926.41
2022-08-05T15:58:48.806Z,100918.44
2022-08-05T16:01:18.956Z,100916.56
2022-08-05T16:03:50.856Z,100903.25
2022-08-05T16:06:20.767Z,100903.44
2022-08-05T16:08:55.317Z,100909.94
2022-08-05T16:11:40.046Z,100918.09
2022-08-05T16:14:17.414Z,100921.09
2022-08-05T16:16:46.243Z,100926.59
2022-08-05T16:19:25.887Z,100945.41
2022-08-05T16:22:03.318Z,100947.41
2022-08-05T16:24:41.131Z,100939.75
2022-08-05T16:27:32.094Z,100923.31
2022-08-05T16:30:25.533Z,100923.66
2022-08-05T16:32:54.998Z,100925.00
2022-08-05T16:35:24.845Z,100926.50
2022-08-05T16:38:16.768Z,100940.47
2022-08-05T16:40:47.897Z,100946.63
2022-08-05T16:43:23.739Z,100932.53
2022-08-05T16:46:06.566Z,100931.19
2022-08-05T16:48:40.751Z,100921.19
2022-08-05T16:51:10.413Z,100948.97
2022-08-05T16:54:05.727Z,100948.78
2022-08-05T16:56:29.456Z,100954.78
2022-08-05T16:59:00.953Z,100949.44
2022-08-05T17:01:54.805Z,100956.09
2022-08-05T17:04:26.594Z,100954.94
2022-08-05T17:06:55.554Z,100955.75
2022-08-05T17:09:24.824Z,100955.09
2022-08-05T17:11:59.340Z,100951.44
2022-08-05T17:14:36.707Z,100949.78
2022-08-05T17:17:14.261Z,100952.28
2022-08-05T17:19:45.607Z,100937.97
2022-08-05T17:22:24.544Z,100938.66
2022-08-05T17:24:57.957Z,100950.28
2022-08-05T17:27:27.524Z,100955.59
2022-08-05T17:30:04.722Z,100952.75
2022-08-05T17:32:42.117Z,100955.25
2022-08-05T17:35:12.271Z,100955.94
2022-08-05T17:37:45.095Z,100951.47
2022-08-05T17:40:16.281Z,100959.44
2022-08-05T17:42:50.859Z,100967.09
2022-08-05T17:45:22.998Z,100964.59
2022-08-05T17:47:54.977Z,100969.22
2022-08-05T17:50:28.358Z,100962.25
2022-08-05T17:52:59.496Z,100966.06
2022-08-05T17:55:37.548Z,100969.38
2022-08-05T17:58:13.227Z,100961.41
2022-08-05T18:00:47.485Z,100958.06
2022-08-05T18:03:48.393Z,100965.25
2022-08-05T18:06:12.783Z,100978.38
2022-08-05T18:08:46.201Z,100976.03
2022-08-05T18:11:24.368Z,100984.66
2022-08-05T18:14:03.691Z,100992.81
2022-08-05T18:16:33.878Z,100991.16
2022-08-05T18:19:01.877Z,100987.66
2022-08-05T18:22:09.645Z,100989.34
2022-08-05T18:24:17.838Z,100967.22
2022-08-05T18:26:45.813Z,100973.22
2022-08-05T18:29:16.900Z,100979.50
2022-08-05T18:31:46.694Z,100981.19
2022-08-05T18:34:17.754Z,100985.66
2022-08-05T18:36:49.968Z,100979.03
2022-08-05T18:39:42.346Z,100971.22
2022-08-05T18:42:10.980Z,100971.38
2022-08-05T18:44:49.229Z,100976.84
2022-08-05T18:47:26.713Z,100982.66
2022-08-05T18:50:13.221Z,100987.31
2022-08-05T18:52:50.505Z,100979.66
2022-08-05T18:55:21.493Z,100978.16
2022-08-05T18:57:53.459Z,100993.44
2022-08-05T19:00:27.242Z,100993.28
2022-08-05T19:03:03.197Z,100986.09
2022-08-05T19:06:13.415Z,100967.00
2022-08-05T19:08:21.679Z,100980.22
2022-08-05T19:10:50.038Z,100981.69
2022-08-05T19:13:18.059Z,100985.81
2022-08-05T19:16:00.090Z,100985.81
2022-08-05T19:18:32.714Z,100994.28
2022-08-05T19:21:01.140Z,100986.09
2022-08-05T19:24:07.482Z,100991.09
2022-08-05T19:26:19.816Z,100980.56
2022-08-05T19:28:48.004Z,100984.38
2022-08-05T19:31:19.505Z,100983.31
2022-08-05T19:33:56.466Z,100980.34
2022-08-05T19:36:25.543Z,100979.13
2022-08-05T19:38:55.087Z,100977.28
2022-08-05T19:41:58.410Z,100976.75
2022-08-05T19:44:16.604Z,100976.53
2022-08-05T19:46:47.306Z,100988.47
2022-08-05T19:49:19.687Z,100993.06
2022-08-05T19:52:05.070Z,100994.91
2022-08-05T19:54:37.015Z,101004.00
2022-08-05T19:57:09.604Z,101002.34
2022-08-05T19:59:55.807Z,100998.84
2022-08-05T20:02:30.445Z,101003.81
2022-08-05T20:05:01.110Z,101016.91
2022-08-05T20:07:46.394Z,101017.06
2022-08-05T20:10:17.108Z,101014.69
2022-08-05T20:12:47.496Z,101005.06
2022-08-05T20:15:48.706Z,101005.50
2022-08-05T20:18:10.287Z,100992.56
2022-08-05T20:20:56.377Z,100981.44
2022-08-05T20:23:39.929Z,100974.63
2022-08-05T20:26:15.203Z,100975.75
2022-08-05T20:28:44.897Z,100976.59
2022-08-05T20:31:13.034Z,100982.91
2022-08-05T20:33:42.500Z,100981.06
2022-08-05T20:36:12.399Z,100976.91
2022-08-05T20:38:53.510Z,100970.94
2022-08-05T20:41:27.498Z,100966.63
2022-08-05T20:44:29.232Z,100961.09
2022-08-05T20:46:58.862Z,100961.25
2022-08-05T20:49:26.942Z,100959.59
2022-08-05T20:51:57.662Z,100955.28
2022-08-05T20:54:43.127Z,100953.59
2022-08-05T20:57:15.187Z,100947.63
2022-08-05T21:00:21.390Z,100937.19
2022-08-05T21:02:57.168Z,100931.88
2022-08-05T21:05:25.900Z,100952.94
2022-08-05T21:08:07.381Z,100953.69
2022-08-05T21:10:36.104Z,100943.09
2022-08-05T21:13:11.026Z,100948.72
2022-08-05T21:15:46.099Z,100938.91
2022-08-05T21:18:19.116Z,100948.88
2022-08-05T21:20:47.092Z,100943.72
2022-08-05T21:23:17.091Z,100942.88
2022-08-05T21:27:58.497Z,100948.94
2022-08-05T21:30:26.503Z,100946.44
2022-08-05T21:32:54.493Z,100937.50
2022-08-05T21:35:29.794Z,100945.44
2022-08-05T21:37:58.553Z,100947.28
2022-08-05T21:40:27.038Z,100940.13
2022-08-05T21:42:55.540Z,100928.03
2022-08-05T21:45:56.895Z,100924.41
2022-08-05T21:48:16.663Z,100920.25
2022-08-05T21:50:53.030Z,100923.34
2022-08-05T21:53:27.032Z,100925.19
2022-08-05T21:56:05.354Z,100939.69
2022-08-05T21:58:42.152Z,100937.19
2022-08-05T22:01:23.981Z,100934.19
2022-08-05T22:03:53.687Z,100929.19
2022-08-05T22:06:35.301Z,100930.00
2022-08-05T22:09:13.997Z,100928.66
2022-08-05T22:11:46.753Z,100920.03
2022-08-05T22:14:33.083Z,100928.81
2022-08-05T22:17:05.379Z,100922.81
2022-08-05T22:19:57.534Z,100923.38
2022-08-05T22:22:27.749Z,100924.53
2022-08-05T22:25:18.872Z,100942.53
2022-08-05T22:28:10.786Z,100941.00
2022-08-05T22:30:44.109Z,100933.22
2022-08-05T22:33:57.819Z,100932.38
2022-08-05T22:36:14.775Z,100930.03
2022-08-05T22:38:43.264Z,100921.28
2022-08-05T22:41:11.242Z,100925.22
2022-08-05T22:43:40.698Z,100922.72
2022-08-05T22:46:12.249Z,100919.22
2022-08-05T22:48:50.230Z,100920.50
2022-08-05T22:51:23.274Z,100910.88
2022-08-05T22:54:06.799Z,100911.88
2022-08-05T22:56:35.138Z,100906.03
2022-08-05T22:59:43.966Z,100908.03
2022-08-05T23:02:06.019Z,100908.16
2022-08-05T23:04:37.356Z,100908.97
2022-08-05T23:07:06.937Z,100907.63
2022-08-05T23:09:57.611Z,100908.63
2022-08-05T23:12:24.453Z,100903.47
2022-08-05T23:14:52.801Z,100914.50
2022-08-05T23:17:35.086Z,100902.22
2022-08-05T23:20:16.732Z,100903.66
2022-08-05T23:22:47.324Z,100896.31
2022-08-05T23:25:50.059Z,100899.03
2022-08-05T23:28:06.912Z,100905.13
2022-08-05T23:30:40.174Z,100904.31
2022-08-05T23:33:16.207Z,100908.22
2022-08-05T23:35:51.624Z,100903.38
2022-08-05T23:38:21.950Z,100906.44
2022-08-05T23:40:50.573Z,100914.97
2022-08-05T23:43:24.983Z,100912.75
2022-08-05T23:46:21.105Z,100907.22
2022-08-05T23:49:00.895Z,100907.53
2022-08-05T23:51:46.566Z,100909.72
2022-08-05T23:54:25.103Z,100897.38
2022-08-05T23:57:03.187Z,100904.91
